Time,TemperatureF,DewpointF,PressureIn,WindDirection,WindDirectionDegrees,WindSpeedMPH,WindSpeedGustMPH,Humidity,HourlyPrecipIn,Conditions,Clouds,dailyrainin,SoftwareType,DateUTC
2013-04-11 00:00:00,51.4,44.1,28.76,East,95,7.0,11.0,76,0.00,RA,,0.00,WeatherDisplay:10.37,2013-04-11 04:00:00,
2013-04-11 00:05:00,51.6,44.3,28.76,ESE,104,7.0,12.0,76,0.00,RA,,0.00,WeatherDisplay:10.37,2013-04-11 04:05:00,
2013-04-11 00:10:00,51.6,44.3,28.76,East,98,8.0,9.0,76,0.00,CLR,,0.00,WeatherDisplay:10.37,2013-04-11 04:10:00,
2013-04-11 00:20:00,51.7,44.0,28.76,East,88,7.0,9.0,75,0.00,CLR,,0.00,WeatherDisplay:10.37,2013-04-11 04:20:00,
2013-04-11 00:30:00,51.8,44.1,28.76,East,84,6.0,8.0,75,0.00,CLR,,0.00,WeatherDisplay:10.37,2013-04-11 04:30:00,
2013-04-11 00:35:00,51.8,44.1,28.76,East,84,5.0,6.0,75,0.00,CLR,,0.00,WeatherDisplay:10.37,2013-04-11 04:35:00,
2013-04-11 00:40:00,52.0,44.3,28.76,East,79,5.0,8.0,75,0.00,CLR,,0.00,WeatherDisplay:10.37,2013-04-11 04:40:00,
2013-04-11 00:45:00,52.0,44.3,28.76,East,87,6.0,8.0,75,0.00,CLR,,0.00,WeatherDisplay:10.37,2013-04-11 04:45:00,
2013-04-11 00:50:00,52.0,44.3,28.76,East,92,8.0,10.0,75,0.00,CLR,,0.00,WeatherDisplay:10.37,2013-04-11 04:50:00,
2013-04-11 01:00:00,52.0,44.3,28.73,East,84,6.0,8.0,75,0.00,CLR,,0.00,WeatherDisplay:10.37,2013-04-11 05:00:00,
2013-04-11 01:05:00,52.2,44.5,28.73,East,83,6.0,8.0,75,0.00,CLR,,0.00,WeatherDisplay:10.37,2013-04-11 05:05:00,
2013-04-11 01:10:00,52.2,44.5,28.73,East,89,7.0,8.0,75,0.00,CLR,,0.00,WeatherDisplay:10.37,2013-04-11 05:10:00,
2013-04-11 01:20:00,52.2,44.5,28.73,East,87,7.0,10.0,75,0.00,CLR,,0.00,WeatherDisplay:10.37,2013-04-11 05:20:00,
2013-04-11 01:25:00,52.3,44.6,28.73,East,88,8.0,10.0,75,0.00,CLR,,0.00,WeatherDisplay:10.37,2013-04-11 05:25:00,
2013-04-11 01:30:00,52.3,44.6,28.73,East,84,7.0,11.0,75,0.00,CLR,,0.00,WeatherDisplay:10.37,2013-04-11 05:30:00,
2013-04-11 01:35:00,52.5,44.8,28.73,East,79,6.0,8.0,75,0.00,CLR,,0.00,WeatherDisplay:10.37,2013-04-11 05:35:00,
2013-04-11 01:40:00,52.5,44.8,28.73,ENE,76,5.0,8.0,75,0.00,CLR,,0.00,WeatherDisplay:10.37,2013-04-11 05:40:00,
2013-04-11 01:45:00,52.7,45.3,28.73,ENE,75,7.0,9.0,76,0.00,CLR,,0.00,WeatherDisplay:10.37,2013-04-11 05:45:00,
2013-04-11 01:50:00,52.7,45.3,28.73,East,82,5.0,8.0,76,0.00,CLR,,0.00,WeatherDisplay:10.37,2013-04-11 05:50:00,
2013-04-11 01:55:00,52.9,45.5,28.73,East,90,6.0,7.0,76,0.00,CLR,,0.00,WeatherDisplay:10.37,2013-04-11 05:55:00,
2013-04-11 02:00:00,53.1,45.7,28.73,ENE,77,7.0,10.0,76,0.00,CLR,,0.00,WeatherDisplay:10.37,2013-04-11 06:00:00,
2013-04-11 02:05:00,53.1,45.7,28.73,ENE,76,6.0,8.0,76,0.00,CLR,,0.00,WeatherDisplay:10.37,2013-04-11 06:05:00,
2013-04-11 02:10:00,53.1,45.7,28.70,ENE,78,7.0,9.0,76,0.00,CLR,,0.00,WeatherDisplay:10.37,2013-04-11 06:10:00,
2013-04-11 02:15:00,53.1,45.7,28.70,ENE,75,8.0,11.0,76,0.00,CLR,,0.00,WeatherDisplay:10.37,2013-04-11 06:15:00,
2013-04-11 02:20:00,53.1,45.7,28.70,East,85,6.0,10.0,76,0.00,CLR,,0.00,WeatherDisplay:10.37,2013-04-11 06:20:00,
2013-04-11 02:25:00,53.2,45.9,28.70,East,85,8.0,9.0,76,0.00,CLR,,0.00,WeatherDisplay:10.37,2013-04-11 06:25:00,
2013-04-11 02:30:00,53.1,45.7,28.70,ENE,69,7.0,10.0,76,0.00,CLR,,0.00,WeatherDisplay:10.37,2013-04-11 06:30:00,
2013-04-11 02:40:00,53.1,45.3,28.73,East,83,7.0,12.0,75,0.00,CLR,,0.00,WeatherDisplay:10.37,2013-04-11 06:40:00,
2013-04-11 02:45:00,53.2,45.9,28.73,East,82,6.0,13.0,76,0.00,CLR,,0.00,WeatherDisplay:10.37,2013-04-11 06:45:00,
2013-04-11 02:50:00,53.1,45.0,28.73,NW,308,9.0,22.0,74,0.00,CLR,,0.00,WeatherDisplay:10.37,2013-04-11 06:50:00,
2013-04-11 02:55:00,53.1,45.3,28.76,NW,320,3.0,10.0,75,0.00,CLR,,0.00,WeatherDisplay:10.37,2013-04-11 06:55:00,
2013-04-11 03:00:00,54.4,46.3,28.76,NNW,328,7.0,13.0,74,0.00,CLR,,0.00,WeatherDisplay:10.37,2013-04-11 07:00:00,
2013-04-11 03:05:00,54.1,45.7,28.76,NW,319,0.0,3.0,73,0.00,CLR,,0.00,WeatherDisplay:10.37,2013-04-11 07:05:00,
2013-04-11 03:10:00,54.3,46.2,28.76,NW,324,0.0,0.0,74,0.00,CLR,,0.00,WeatherDisplay:10.37,2013-04-11 07:10:00,
2013-04-11 03:15:00,54.3,46.2,28.76,NE,37,3.0,4.0,74,0.00,CLR,,0.00,WeatherDisplay:10.37,2013-04-11 07:15:00,
2013-04-11 03:20:00,54.5,46.4,28.76,ENE,77,0.0,3.0,74,0.00,CLR,,0.00,WeatherDisplay:10.37,2013-04-11 07:20:00,
2013-04-11 03:25:00,54.8,47.0,28.76,East,82,0.0,0.0,75,0.00,CLR,,0.00,WeatherDisplay:10.37,2013-04-11 07:25:00,
2013-04-11 03:30:00,55.0,47.3,28.76,East,82,0.0,0.0,75,0.00,CLR,,0.00,WeatherDisplay:10.37,2013-04-11 07:30:00,
2013-04-11 03:40:00,55.2,47.4,28.76,East,82,0.0,0.0,75,0.00,CLR,,0.00,WeatherDisplay:10.37,2013-04-11 07:40:00,
2013-04-11 03:50:00,55.2,47.4,28.76,East,82,0.0,0.0,75,0.00,CLR,,0.00,WeatherDisplay:10.37,2013-04-11 07:50:00,
2013-04-11 03:55:00,55.0,47.3,28.76,East,82,0.0,0.0,75,0.00,CLR,,0.00,WeatherDisplay:10.37,2013-04-11 07:55:00,
2013-04-11 04:00:00,55.2,47.4,28.76,East,82,0.0,0.0,75,0.00,CLR,,0.00,WeatherDisplay:10.37,2013-04-11 08:00:00,
2013-04-11 04:05:00,54.9,47.1,28.76,East,82,3.0,4.0,75,0.00,CLR,,0.00,WeatherDisplay:10.37,2013-04-11 08:05:00,
2013-04-11 04:10:00,54.7,46.9,28.76,East,82,0.0,3.0,75,0.00,CLR,,0.00,WeatherDisplay:10.37,2013-04-11 08:10:00,
2013-04-11 04:15:00,54.7,47.3,28.76,East,82,2.0,4.0,76,0.00,CLR,,0.00,WeatherDisplay:10.37,2013-04-11 08:15:00,
2013-04-11 04:20:00,54.5,47.1,28.76,ENE,72,3.0,6.0,76,0.00,CLR,,0.00,WeatherDisplay:10.37,2013-04-11 08:20:00,
2013-04-11 04:25:00,54.5,47.1,28.76,ENE,70,3.0,6.0,76,0.00,CLR,,0.00,WeatherDisplay:10.37,2013-04-11 08:25:00,
2013-04-11 04:30:00,54.5,47.1,28.76,ENE,69,5.0,6.0,76,0.00,CLR,,0.00,WeatherDisplay:10.37,2013-04-11 08:30:00,
2013-04-11 04:35:00,54.1,46.7,28.76,ENE,66,7.0,9.0,76,0.00,CLR,,0.00,WeatherDisplay:10.37,2013-04-11 08:35:00,
2013-04-11 04:40:00,54.0,46.6,28.75,ENE,65,8.0,11.0,76,0.00,CLR,,0.00,WeatherDisplay:10.37,2013-04-11 08:40:00,
2013-04-11 04:50:00,53.0,45.6,28.73,ENE,77,7.0,9.0,76,0.00,CLR,,0.00,WeatherDisplay:10.37,2013-04-11 08:50:00,
2013-04-11 04:55:00,52.3,44.6,28.76,ENE,65,7.0,10.0,75,0.00,CLR,,0.00,WeatherDisplay:10.37,2013-04-11 08:55:00,
2013-04-11 05:00:00,51.9,44.2,28.76,ENE,66,8.0,9.0,75,0.00,CLR,,0.00,WeatherDisplay:10.37,2013-04-11 09:00:00,
2013-04-11 05:05:00,51.4,44.1,28.76,ENE,62,7.0,9.0,76,0.00,CLR,,0.00,WeatherDisplay:10.37,2013-04-11 09:05:00,
2013-04-11 05:15:00,50.9,43.6,28.73,ENE,63,7.0,10.0,76,0.00,CLR,,0.00,WeatherDisplay:10.37,2013-04-11 09:15:00,
2013-04-11 05:20:00,50.7,43.4,28.73,ENE,63,8.0,9.0,76,0.00,CLR,,0.00,WeatherDisplay:10.37,2013-04-11 09:20:00,
2013-04-11 05:25:00,50.4,43.1,28.73,ENE,72,7.0,11.0,76,0.00,CLR,,0.00,WeatherDisplay:10.37,2013-04-11 09:25:00,
2013-04-11 05:30:00,50.0,42.4,28.73,ENE,77,8.0,12.0,75,0.00,CLR,,0.00,WeatherDisplay:10.37,2013-04-11 09:30:00,
2013-04-11 05:40:00,49.6,42.0,28.73,East,83,8.0,13.0,75,0.00,CLR,,0.00,WeatherDisplay:10.37,2013-04-11 09:40:00,
2013-04-11 05:45:00,49.3,41.7,28.73,East,80,7.0,11.0,75,0.00,CLR,,0.00,WeatherDisplay:10.37,2013-04-11 09:45:00,
2013-04-11 05:50:00,48.9,41.0,28.73,ENE,78,8.0,10.0,74,0.00,CLR,,0.00,WeatherDisplay:10.37,2013-04-11 09:50:00,
2013-04-11 05:55:00,48.9,41.3,28.73,ENE,77,5.0,8.0,75,0.00,CLR,,0.00,WeatherDisplay:10.37,2013-04-11 09:55:00,
2013-04-11 06:00:00,49.1,41.9,28.73,East,80,8.0,11.0,76,0.00,CLR,,0.00,WeatherDisplay:10.37,2013-04-11 10:00:00,
2013-04-11 06:10:00,49.3,42.0,28.73,East,84,5.0,9.0,76,0.00,CLR,,0.00,WeatherDisplay:10.37,2013-04-11 10:10:00,
2013-04-11 06:20:00,49.5,42.2,28.73,ESE,104,6.0,8.0,76,0.00,CLR,,0.00,WeatherDisplay:10.37,2013-04-11 10:20:00,
2013-04-11 06:30:00,49.5,42.2,28.73,ENE,74,5.0,8.0,76,0.00,CLR,,0.00,WeatherDisplay:10.37,2013-04-11 10:30:00,
2013-04-11 06:35:00,49.3,42.0,28.73,ENE,71,7.0,9.0,76,0.00,CLR,,0.00,WeatherDisplay:10.37,2013-04-11 10:35:00,
2013-04-11 06:40:00,49.3,42.0,28.70,ENE,70,8.0,12.0,76,0.00,CLR,,0.00,WeatherDisplay:10.37,2013-04-11 10:40:00,
2013-04-11 06:45:00,49.1,41.9,28.70,ENE,78,6.0,10.0,76,0.00,CLR,,0.00,WeatherDisplay:10.37,2013-04-11 10:45:00,
2013-04-11 06:50:00,49.1,41.9,28.70,East,82,6.0,8.0,76,0.00,CLR,,0.00,WeatherDisplay:10.37,2013-04-11 10:50:00,
2013-04-11 06:55:00,49.1,41.9,28.70,East,86,7.0,8.0,76,0.00,CLR,,0.00,WeatherDisplay:10.37,2013-04-11 10:55:00,
2013-04-11 07:00:00,49.1,41.9,28.70,East,84,3.0,8.0,76,0.00,CLR,,0.00,WeatherDisplay:10.37,2013-04-11 11:00:00,
2013-04-11 07:05:00,49.1,41.9,28.70,East,84,5.0,7.0,76,0.00,CLR,,0.00,WeatherDisplay:10.37,2013-04-11 11:05:00,
2013-04-11 07:10:00,49.1,41.9,28.70,ENE,75,5.0,6.0,76,0.00,CLR,,0.00,WeatherDisplay:10.37,2013-04-11 11:10:00,
2013-04-11 07:15:00,49.1,41.9,28.70,ENE,76,5.0,8.0,76,0.00,CLR,,0.00,WeatherDisplay:10.37,2013-04-11 11:15:00,
2013-04-11 07:20:00,49.1,41.9,28.70,East,86,6.0,8.0,76,0.00,CLR,,0.00,WeatherDisplay:10.37,2013-04-11 11:20:00,
2013-04-11 07:25:00,49.1,41.9,28.70,East,89,7.0,11.0,76,0.00,CLR,,0.00,WeatherDisplay:10.37,2013-04-11 11:25:00,
2013-04-11 07:30:00,49.1,41.9,28.70,East,88,6.0,8.0,76,0.00,CLR,,0.00,WeatherDisplay:10.37,2013-04-11 11:30:00,
2013-04-11 07:35:00,49.3,42.4,28.70,East,79,6.0,8.0,77,0.00,CLR,,0.00,WeatherDisplay:10.37,2013-04-11 11:35:00,
2013-04-11 07:40:00,49.3,42.4,28.70,ENE,75,5.0,7.0,77,0.00,CLR,,0.00,WeatherDisplay:10.37,2013-04-11 11:40:00,
2013-04-11 07:45:00,49.3,42.4,28.70,East,80,3.0,6.0,77,0.00,CLR,,0.00,WeatherDisplay:10.37,2013-04-11 11:45:00,
2013-04-11 07:50:00,49.3,42.4,28.70,East,83,6.0,8.0,77,0.00,CLR,,0.00,WeatherDisplay:10.37,2013-04-11 11:50:00,
2013-04-11 07:55:00,49.5,42.5,28.70,East,80,6.0,8.0,77,0.00,CLR,,0.00,WeatherDisplay:10.37,2013-04-11 11:55:00,
2013-04-11 08:05:00,49.6,42.7,28.70,East,83,5.0,8.0,77,0.00,CLR,,0.00,WeatherDisplay:10.37,2013-04-11 12:05:00,
2013-04-11 08:10:00,49.6,42.7,28.70,East,83,6.0,9.0,77,0.00,CLR,,0.00,WeatherDisplay:10.37,2013-04-11 12:10:00,
2013-04-11 08:15:00,49.5,42.5,28.70,ENE,75,7.0,9.0,77,0.00,CLR,,0.00,WeatherDisplay:10.37,2013-04-11 12:15:00,
2013-04-11 08:20:00,49.6,42.4,28.70,ENE,73,6.0,9.0,76,0.00,CLR,,0.00,WeatherDisplay:10.37,2013-04-11 12:20:00,
2013-04-11 08:25:00,49.6,42.4,28.70,ENE,76,6.0,8.0,76,0.00,CLR,,0.00,WeatherDisplay:10.37,2013-04-11 12:25:00,
2013-04-11 08:30:00,49.6,42.4,28.70,ENE,78,6.0,7.0,76,0.00,CLR,,0.00,WeatherDisplay:10.37,2013-04-11 12:30:00,
2013-04-11 08:35:00,49.6,42.4,28.70,East,82,6.0,9.0,76,0.00,CLR,,0.00,WeatherDisplay:10.37,2013-04-11 12:35:00,
2013-04-11 08:40:00,49.8,42.6,28.70,ENE,77,5.0,8.0,76,0.00,CLR,,0.00,WeatherDisplay:10.37,2013-04-11 12:40:00,
2013-04-11 08:45:00,49.8,42.6,28.70,ENE,74,6.0,8.0,76,0.00,CLR,,0.00,WeatherDisplay:10.37,2013-04-11 12:45:00,
2013-04-11 08:50:00,50.0,42.7,28.70,ENE,71,6.0,6.0,76,0.00,CLR,,0.00,WeatherDisplay:10.37,2013-04-11 12:50:00,
2013-04-11 09:00:00,50.2,42.9,28.70,ENE,75,6.0,8.0,76,0.00,CLR,,0.00,WeatherDisplay:10.37,2013-04-11 13:00:00,
2013-04-11 09:05:00,50.2,42.9,28.70,ENE,78,6.0,9.0,76,0.00,CLR,,0.00,WeatherDisplay:10.37,2013-04-11 13:05:00,
2013-04-11 09:10:00,50.4,43.1,28.67,ENE,76,6.0,8.0,76,0.00,CLR,,0.00,WeatherDisplay:10.37,2013-04-11 13:10:00,
2013-04-11 09:20:00,50.4,42.7,28.67,ENE,76,5.0,6.0,75,0.00,CLR,,0.00,WeatherDisplay:10.37,2013-04-11 13:20:00,
2013-04-11 09:25:00,50.4,42.7,28.70,ENE,74,3.0,6.0,75,0.00,CLR,,0.00,WeatherDisplay:10.37,2013-04-11 13:25:00,
2013-04-11 09:30:00,50.4,42.7,28.70,ENE,66,6.0,8.0,75,0.00,CLR,,0.00,WeatherDisplay:10.37,2013-04-11 13:30:00,
2013-04-11 09:40:00,50.4,42.7,28.67,ENE,73,6.0,6.0,75,0.00,CLR,,0.00,WeatherDisplay:10.37,2013-04-11 13:40:00,
2013-04-11 09:50:00,50.4,42.7,28.67,ENE,75,5.0,6.0,75,0.00,CLR,,0.00,WeatherDisplay:10.37,2013-04-11 13:50:00,
2013-04-11 09:55:00,50.4,42.7,28.67,ENE,70,3.0,6.0,75,0.00,CLR,,0.00,WeatherDisplay:10.37,2013-04-11 13:55:00,
2013-04-11 10:00:00,50.4,42.7,28.67,ENE,72,2.0,6.0,75,0.00,CLR,,0.00,WeatherDisplay:10.37,2013-04-11 14:00:00,
2013-04-11 10:05:00,50.4,42.7,28.67,ENE,71,2.0,6.0,75,0.00,CLR,,0.00,WeatherDisplay:10.37,2013-04-11 14:05:00,
2013-04-11 10:10:00,50.4,42.7,28.70,ENE,70,3.0,5.0,75,0.00,CLR,,0.00,WeatherDisplay:10.37,2013-04-11 14:10:00,
2013-04-11 10:15:00,51.4,42.0,28.70,ENE,71,3.0,8.0,70,0.00,CLR,,0.00,WeatherDisplay:10.37,2013-04-11 14:15:00,
2013-04-11 10:20:00,51.4,41.6,28.70,ENE,67,5.0,6.0,69,0.00,CLR,,0.00,WeatherDisplay:10.37,2013-04-11 14:20:00,
2013-04-11 10:25:00,51.4,41.1,28.70,ENE,62,3.0,6.0,68,0.00,CLR,,0.00,WeatherDisplay:10.37,2013-04-11 14:25:00,
2013-04-11 10:30:00,51.4,40.5,28.70,ENE,62,5.0,8.0,66,0.00,CLR,,0.00,WeatherDisplay:10.37,2013-04-11 14:30:00,
2013-04-11 10:35:00,51.6,40.6,28.70,ENE,65,5.0,8.0,66,0.00,CLR,,0.00,WeatherDisplay:10.37,2013-04-11 14:35:00,
2013-04-11 10:40:00,51.6,40.6,28.67,ENE,68,7.0,9.0,66,0.00,CLR,,0.00,WeatherDisplay:10.37,2013-04-11 14:40:00,
2013-04-11 10:45:00,51.6,40.6,28.67,ENE,67,6.0,10.0,66,0.00,CLR,,0.00,WeatherDisplay:10.37,2013-04-11 14:45:00,
2013-04-11 10:50:00,51.6,40.6,28.67,ENE,68,5.0,8.0,66,0.00,CLR,,0.00,WeatherDisplay:10.37,2013-04-11 14:50:00,
2013-04-11 10:55:00,51.6,40.6,28.67,ENE,73,7.0,9.0,66,0.00,CLR,,0.00,WeatherDisplay:10.37,2013-04-11 14:55:00,
2013-04-11 11:00:00,51.6,40.6,28.67,ENE,70,7.0,9.0,66,0.00,CLR,,0.00,WeatherDisplay:10.37,2013-04-11 15:00:00,
2013-04-11 11:05:00,51.6,40.6,28.67,ENE,70,6.0,8.0,66,0.00,CLR,,0.00,WeatherDisplay:10.37,2013-04-11 15:05:00,
2013-04-11 11:10:00,51.6,40.6,28.67,ENE,76,6.0,9.0,66,0.00,CLR,,0.00,WeatherDisplay:10.37,2013-04-11 15:10:00,
2013-04-11 11:15:00,51.6,40.6,28.67,ENE,76,6.0,7.0,66,0.00,CLR,,0.00,WeatherDisplay:10.37,2013-04-11 15:15:00,
2013-04-11 11:20:00,54.0,28.3,28.67,ENE,77,7.0,9.0,37,0.00,CLR,,0.00,WeatherDisplay:10.37,2013-04-11 15:20:00,
2013-04-11 11:25:00,53.8,28.7,28.70,East,80,6.0,8.0,38,0.00,CLR,,0.00,WeatherDisplay:10.37,2013-04-11 15:25:00,
2013-04-11 11:30:00,53.8,28.8,28.70,East,81,6.0,8.0,38,0.00,CLR,,0.00,WeatherDisplay:10.37,2013-04-11 15:30:00,
2013-04-11 11:35:00,54.3,30.5,28.70,East,79,6.0,8.0,40,0.00,CLR,,0.00,WeatherDisplay:10.37,2013-04-11 15:35:00,
2013-04-11 11:40:00,54.8,31.6,28.67,ENE,76,6.0,8.0,41,0.00,CLR,,0.00,WeatherDisplay:10.37,2013-04-11 15:40:00,
2013-04-11 11:45:00,54.7,28.9,28.67,ENE,74,6.0,8.0,37,0.00,CLR,,0.00,WeatherDisplay:10.37,2013-04-11 15:45:00,
2013-04-11 11:55:00,54.9,28.4,28.67,ENE,72,6.0,8.0,36,0.00,CLR,,0.00,WeatherDisplay:10.37,2013-04-11 15:55:00,
2013-04-11 12:00:00,54.5,27.4,28.67,ENE,66,7.0,9.0,35,0.00,CLR,,0.00,WeatherDisplay:10.37,2013-04-11 16:00:00,
2013-04-11 12:05:00,54.3,27.9,28.67,ENE,65,7.0,12.0,36,0.00,CLR,,0.00,WeatherDisplay:10.37,2013-04-11 16:05:00,
2013-04-11 12:15:00,53.8,29.4,28.67,ENE,65,6.0,9.0,39,0.00,CLR,,0.00,WeatherDisplay:10.37,2013-04-11 16:15:00,
2013-04-11 12:20:00,54.0,30.8,28.67,ENE,70,6.0,8.0,41,0.00,CLR,,0.00,WeatherDisplay:10.37,2013-04-11 16:20:00,
2013-04-11 12:25:00,54.1,32.7,28.67,ENE,71,6.0,8.0,44,0.00,CLR,,0.00,WeatherDisplay:10.37,2013-04-11 16:25:00,
2013-04-11 12:30:00,54.5,33.0,28.67,ENE,68,6.0,8.0,44,0.00,CLR,,0.00,WeatherDisplay:10.37,2013-04-11 16:30:00,
2013-04-11 12:35:00,54.5,33.0,28.67,ENE,71,6.0,8.0,44,0.00,CLR,,0.00,WeatherDisplay:10.37,2013-04-11 16:35:00,
2013-04-11 12:40:00,54.7,33.7,28.67,ENE,71,3.0,7.0,45,0.00,CLR,,0.00,WeatherDisplay:10.37,2013-04-11 16:40:00,
2013-04-11 12:45:00,54.9,34.5,28.67,ENE,72,6.0,6.0,46,0.00,CLR,,0.00,WeatherDisplay:10.37,2013-04-11 16:45:00,
2013-04-11 12:55:00,54.5,30.6,28.67,ENE,69,8.0,10.0,40,0.00,CLR,,0.00,WeatherDisplay:10.37,2013-04-11 16:55:00,
2013-04-11 13:00:00,54.5,30.6,28.67,ENE,76,0.0,8.0,40,0.00,CLR,,0.00,WeatherDisplay:10.37,2013-04-11 17:00:00,
2013-04-11 13:05:00,54.5,30.6,28.67,ENE,76,5.0,7.0,40,0.00,CLR,,0.00,WeatherDisplay:10.37,2013-04-11 17:05:00,
2013-04-11 13:15:00,54.6,32.5,28.67,ENE,76,3.0,9.0,43,0.00,CLR,,0.00,WeatherDisplay:10.37,2013-04-11 17:15:00,
2013-04-11 13:20:00,55.0,32.3,28.67,ENE,74,2.0,6.0,42,0.00,CLR,,0.00,WeatherDisplay:10.37,2013-04-11 17:20:00,
2013-04-11 13:25:00,55.7,31.1,28.67,ENE,77,6.0,8.0,39,0.00,CLR,,0.00,WeatherDisplay:10.37,2013-04-11 17:25:00,
2013-04-11 13:30:00,56.8,32.1,28.67,East,82,6.0,8.0,39,0.00,CLR,,0.00,WeatherDisplay:10.37,2013-04-11 17:30:00,
2013-04-11 13:35:00,57.9,30.4,28.67,East,84,3.0,7.0,35,0.00,CLR,,0.00,WeatherDisplay:10.37,2013-04-11 17:35:00,
2013-04-11 13:40:00,58.5,27.1,28.64,East,79,7.0,8.0,30,0.00,CLR,,0.00,WeatherDisplay:10.37,2013-04-11 17:40:00,
2013-04-11 13:45:00,59.2,26.9,28.64,ENE,75,6.0,9.0,29,0.00,CLR,,0.00,WeatherDisplay:10.37,2013-04-11 17:45:00,
2013-04-11 13:50:00,59.8,24.8,28.64,ENE,65,5.0,7.0,26,0.00,CLR,,0.00,WeatherDisplay:10.37,2013-04-11 17:50:00,
2013-04-11 13:55:00,60.1,26.0,28.64,ENE,59,6.0,6.0,27,0.00,CLR,,0.00,WeatherDisplay:10.37,2013-04-11 17:55:00,
2013-04-11 14:00:00,60.5,25.4,28.64,ENE,62,6.0,8.0,26,0.00,CLR,,0.00,WeatherDisplay:10.37,2013-04-11 18:00:00,
2013-04-11 14:05:00,61.2,26.9,28.64,East,83,3.0,8.0,27,0.00,CLR,,0.00,WeatherDisplay:10.37,2013-04-11 18:05:00,
2013-04-11 14:15:00,65.3,29.5,28.64,South,179,2.0,9.0,26,0.00,CLR,,0.00,WeatherDisplay:10.37,2013-04-11 18:15:00,
2013-04-11 14:20:00,65.8,23.6,28.64,SSE,167,5.0,8.0,20,0.00,CLR,,0.00,WeatherDisplay:10.37,2013-04-11 18:20:00,
2013-04-11 14:25:00,66.2,23.9,28.64,South,172,3.0,6.0,20,0.00,CLR,,0.00,WeatherDisplay:10.37,2013-04-11 18:25:00,
2013-04-11 14:35:00,66.7,20.5,28.64,South,169,5.0,9.0,17,0.00,CLR,,0.00,WeatherDisplay:10.37,2013-04-11 18:35:00,
2013-04-11 14:40:00,66.7,17.6,28.61,SSE,167,2.0,6.0,15,0.00,CLR,,0.00,WeatherDisplay:10.37,2013-04-11 18:40:00,
2013-04-11 14:45:00,66.7,17.6,28.61,South,174,0.0,8.0,15,0.00,CLR,,0.00,WeatherDisplay:10.37,2013-04-11 18:45:00,
2013-04-11 14:50:00,66.7,17.6,28.61,SSE,153,3.0,8.0,15,0.00,CLR,,0.00,WeatherDisplay:10.37,2013-04-11 18:50:00,
2013-04-11 14:55:00,66.9,20.6,28.61,SE,144,0.0,6.0,17,0.00,CLR,,0.00,WeatherDisplay:10.37,2013-04-11 18:55:00,
2013-04-11 15:00:00,66.7,17.6,28.61,SSE,152,2.0,13.0,15,0.00,CLR,,0.00,WeatherDisplay:10.37,2013-04-11 19:00:00,
2013-04-11 15:05:00,66.6,20.3,28.61,SSE,152,5.0,10.0,17,0.00,CLR,,0.00,WeatherDisplay:10.37,2013-04-11 19:05:00,
2013-04-11 15:10:00,66.4,20.2,28.61,SSE,148,5.0,10.0,17,0.00,CLR,,0.00,WeatherDisplay:10.37,2013-04-11 19:10:00,
2013-04-11 15:15:00,66.2,20.1,28.61,SSE,161,6.0,12.0,17,0.00,CLR,,0.00,WeatherDisplay:10.37,2013-04-11 19:15:00,
2013-04-11 15:20:00,66.2,20.0,28.61,South,170,3.0,9.0,17,0.00,CLR,,0.00,WeatherDisplay:10.37,2013-04-11 19:20:00,
2013-04-11 15:25:00,66.2,20.0,28.61,SSE,163,5.0,6.0,17,0.00,CLR,,0.00,WeatherDisplay:10.37,2013-04-11 19:25:00,
2013-04-11 15:30:00,66.0,21.2,28.61,SSE,154,6.0,10.0,18,0.00,CLR,,0.00,WeatherDisplay:10.37,2013-04-11 19:30:00,
2013-04-11 15:35:00,65.8,23.6,28.61,SSE,149,5.0,13.0,20,0.00,CLR,,0.00,WeatherDisplay:10.37,2013-04-11 19:35:00,
2013-04-11 15:40:00,65.8,27.0,28.61,SSE,149,6.0,10.0,23,0.00,CLR,,0.00,WeatherDisplay:10.37,2013-04-11 19:40:00,
2013-04-11 15:45:00,65.8,27.0,28.61,SSE,152,3.0,8.0,23,0.00,CLR,,0.00,WeatherDisplay:10.37,2013-04-11 19:45:00,
2013-04-11 15:50:00,65.8,27.0,28.61,SE,145,6.0,12.0,23,0.00,CLR,,0.00,WeatherDisplay:10.37,2013-04-11 19:50:00,
2013-04-11 15:55:00,65.7,26.8,28.61,SSE,152,6.0,13.0,23,0.00,CLR,,0.00,WeatherDisplay:10.37,2013-04-11 19:55:00,
2013-04-11 16:00:00,65.7,26.8,28.61,SSE,161,6.0,7.0,23,0.00,CLR,,0.00,WeatherDisplay:10.37,2013-04-11 20:00:00,
2013-04-11 16:05:00,65.7,26.8,28.61,SSE,159,6.0,9.0,23,0.00,CLR,,0.00,WeatherDisplay:10.37,2013-04-11 20:05:00,
2013-04-11 16:10:00,65.7,27.9,28.61,SSE,150,2.0,8.0,24,0.00,CLR,,0.00,WeatherDisplay:10.37,2013-04-11 20:10:00,
2013-04-11 16:20:00,65.7,27.9,28.61,SE,143,5.0,8.0,24,0.00,CLR,,0.00,WeatherDisplay:10.37,2013-04-11 20:20:00,
2013-04-11 16:25:00,65.8,28.0,28.61,SE,145,3.0,8.0,24,0.00,CLR,,0.00,WeatherDisplay:10.37,2013-04-11 20:25:00,
2013-04-11 16:30:00,65.8,29.0,28.61,SE,142,0.0,6.0,25,0.00,CLR,,0.00,WeatherDisplay:10.37,2013-04-11 20:30:00,
2013-04-11 16:35:00,65.8,29.0,28.61,SE,131,3.0,6.0,25,0.00,CLR,,0.00,WeatherDisplay:10.37,2013-04-11 20:35:00,
2013-04-11 16:40:00,65.8,29.0,28.59,SE,125,2.0,5.0,25,0.00,CLR,,0.00,WeatherDisplay:10.37,2013-04-11 20:40:00,
2013-04-11 16:45:00,65.8,29.0,28.58,East,97,5.0,6.0,25,0.00,CLR,,0.00,WeatherDisplay:10.37,2013-04-11 20:45:00,
2013-04-11 16:50:00,63.4,25.9,28.58,ENE,71,6.0,8.0,24,0.00,CLR,,0.00,WeatherDisplay:10.37,2013-04-11 20:50:00,
2013-04-11 17:00:00,61.4,28.8,28.61,ENE,62,5.0,6.0,29,0.00,CLR,,0.00,WeatherDisplay:10.37,2013-04-11 21:00:00,
2013-04-11 17:05:00,61.0,31.6,28.61,ENE,66,0.0,6.0,33,0.00,CLR,,0.00,WeatherDisplay:10.37,2013-04-11 21:05:00,
2013-04-11 17:10:00,61.0,32.4,28.58,ENE,73,0.0,4.0,34,0.00,CLR,,0.00,WeatherDisplay:10.37,2013-04-11 21:10:00,
2013-04-11 17:15:00,60.8,32.2,28.58,ENE,70,3.0,5.0,34,0.00,CLR,,0.00,WeatherDisplay:10.37,2013-04-11 21:15:00,
2013-04-11 17:20:00,60.6,32.8,28.58,ENE,67,5.0,6.0,35,0.00,CLR,,0.00,WeatherDisplay:10.37,2013-04-11 21:20:00,
2013-04-11 17:25:00,60.5,32.7,28.58,ENE,64,3.0,5.0,35,0.00,CLR,,0.00,WeatherDisplay:10.37,2013-04-11 21:25:00,
2013-04-11 17:30:00,60.6,33.5,28.58,ENE,69,1.0,6.0,36,0.00,CLR,,0.00,WeatherDisplay:10.37,2013-04-11 21:30:00,
2013-04-11 17:35:00,60.4,34.0,28.58,East,80,3.0,6.0,37,0.00,CLR,,0.00,WeatherDisplay:10.37,2013-04-11 21:35:00,
2013-04-11 17:40:00,60.3,34.5,28.58,East,80,5.0,6.0,38,0.00,CLR,,0.00,WeatherDisplay:10.37,2013-04-11 21:40:00,
2013-04-11 17:45:00,60.3,34.5,28.58,ENE,76,2.0,6.0,38,0.00,CLR,,0.00,WeatherDisplay:10.37,2013-04-11 21:45:00,
2013-04-11 17:55:00,60.3,36.4,28.58,ENE,76,0.0,3.0,41,0.00,CLR,,0.00,WeatherDisplay:10.37,2013-04-11 21:55:00,
2013-04-11 18:00:00,60.0,34.9,28.58,ENE,73,0.0,3.0,39,0.00,CLR,,0.00,WeatherDisplay:10.37,2013-04-11 22:00:00,
2013-04-11 18:10:00,59.9,35.5,28.58,ENE,73,0.0,0.0,40,0.00,CLR,,0.00,WeatherDisplay:10.37,2013-04-11 22:10:00,
2013-04-11 18:20:00,60.2,36.4,28.58,ENE,75,0.0,6.0,41,0.00,CLR,,0.00,WeatherDisplay:10.37,2013-04-11 22:20:00,
2013-04-11 18:25:00,60.8,39.3,28.58,WNW,300,3.0,7.0,45,0.00,CLR,,0.00,WeatherDisplay:10.37,2013-04-11 22:25:00,
2013-04-11 18:30:00,59.9,32.2,28.58,WNW,294,0.0,6.0,35,0.00,CLR,,0.00,WeatherDisplay:10.37,2013-04-11 22:30:00,
2013-04-11 18:35:00,59.7,32.7,28.58,WNW,301,0.0,0.0,36,0.00,CLR,,0.00,WeatherDisplay:10.37,2013-04-11 22:35:00,
2013-04-11 18:40:00,59.5,33.2,28.58,NW,304,0.0,0.0,37,0.00,CLR,,0.00,WeatherDisplay:10.37,2013-04-11 22:40:00,
2013-04-11 18:45:00,59.2,32.9,28.58,North,4,2.0,4.0,37,0.00,CLR,,0.00,WeatherDisplay:10.37,2013-04-11 22:45:00,
2013-04-11 18:50:00,58.6,31.7,28.58,NE,54,5.0,7.0,36,0.00,CLR,,0.00,WeatherDisplay:10.37,2013-04-11 22:50:00,
2013-04-11 18:55:00,58.3,32.1,28.56,NE,56,2.0,8.0,37,0.00,CLR,,0.00,WeatherDisplay:10.37,2013-04-11 22:55:00,
2013-04-11 19:00:00,57.9,33.7,28.56,ENE,58,0.0,3.0,40,0.00,CLR,,0.00,WeatherDisplay:10.37,2013-04-11 23:00:00,
2013-04-11 19:05:00,57.6,35.2,28.56,ENE,57,0.0,4.0,43,0.00,CLR,,0.00,WeatherDisplay:10.37,2013-04-11 23:05:00,
2013-04-11 19:15:00,56.9,34.6,28.58,ENE,59,3.0,8.0,43,0.00,CLR,,0.00,WeatherDisplay:10.37,2013-04-11 23:15:00,
2013-04-11 19:20:00,56.7,32.6,28.58,ENE,58,5.0,8.0,40,0.00,CLR,,0.00,WeatherDisplay:10.37,2013-04-11 23:20:00,
2013-04-11 19:25:00,56.3,32.3,28.58,ENE,60,6.0,8.0,40,0.00,CLR,,0.00,WeatherDisplay:10.37,2013-04-11 23:25:00,
2013-04-11 19:30:00,55.9,31.3,28.58,ENE,61,6.0,6.0,39,0.00,CLR,,0.00,WeatherDisplay:10.37,2013-04-11 23:30:00,
2013-04-11 19:35:00,55.8,31.8,28.58,ENE,64,3.0,6.0,40,0.00,CLR,,0.00,WeatherDisplay:10.37,2013-04-11 23:35:00,
2013-04-11 19:40:00,55.4,32.1,28.58,ENE,66,3.0,6.0,41,0.00,CLR,,0.00,WeatherDisplay:10.37,2013-04-11 23:40:00,
2013-04-11 19:50:00,54.8,32.1,28.58,ENE,61,5.0,6.0,42,0.00,CLR,,0.00,WeatherDisplay:10.37,2013-04-11 23:50:00,
2013-04-11 19:55:00,54.5,30.6,28.56,ENE,63,1.0,6.0,40,0.00,CLR,,0.00,WeatherDisplay:10.37,2013-04-11 23:55:00,
2013-04-11 20:05:00,54.1,32.1,28.56,ENE,62,3.0,5.0,43,0.00,CLR,,0.00,WeatherDisplay:10.37,2013-04-12 00:05:00,
2013-04-11 20:10:00,54.0,32.0,28.56,ENE,64,6.0,6.0,43,0.00,CLR,,0.00,WeatherDisplay:10.37,2013-04-12 00:10:00,
2013-04-11 20:15:00,53.6,31.6,28.56,ENE,61,3.0,8.0,43,0.00,CLR,,0.00,WeatherDisplay:10.37,2013-04-12 00:15:00,
2013-04-11 20:20:00,53.6,32.2,28.56,ENE,62,0.0,6.0,44,0.00,CLR,,0.00,WeatherDisplay:10.37,2013-04-12 00:20:00,
2013-04-11 20:30:00,53.1,31.7,28.56,ENE,62,0.0,4.0,44,0.00,CLR,,0.00,WeatherDisplay:10.37,2013-04-12 00:30:00,
2013-04-11 20:35:00,53.1,32.8,28.56,ENE,61,1.0,4.0,46,0.00,CLR,,0.00,WeatherDisplay:10.37,2013-04-12 00:35:00,
2013-04-11 20:40:00,52.7,33.0,28.53,ENE,59,0.0,6.0,47,0.00,CLR,,0.00,WeatherDisplay:10.37,2013-04-12 00:40:00,
2013-04-11 20:45:00,52.7,34.6,28.53,ENE,58,2.0,6.0,50,0.00,CLR,,0.00,WeatherDisplay:10.37,2013-04-12 00:45:00,
2013-04-11 20:50:00,52.5,36.8,28.53,ENE,57,5.0,8.0,55,0.00,CLR,,0.00,WeatherDisplay:10.37,2013-04-12 00:50:00,
2013-04-11 20:55:00,52.5,39.5,28.53,ENE,63,3.0,8.0,61,0.00,CLR,,0.00,WeatherDisplay:10.37,2013-04-12 00:55:00,
2013-04-11 21:00:00,52.3,38.9,28.53,ENE,66,3.0,6.0,60,0.00,CLR,,0.00,WeatherDisplay:10.37,2013-04-12 01:00:00,
2013-04-11 21:05:00,52.3,38.4,28.53,ENE,62,5.0,6.0,59,0.00,CLR,,0.00,WeatherDisplay:10.37,2013-04-12 01:05:00,
2013-04-11 21:10:00,52.3,38.4,28.56,NE,56,1.0,6.0,59,0.00,CLR,,0.00,WeatherDisplay:10.37,2013-04-12 01:10:00,
2013-04-11 21:20:00,51.1,40.2,28.56,NW,320,6.0,9.0,66,0.00,CLR,,0.00,WeatherDisplay:10.37,2013-04-12 01:20:00,
2013-04-11 21:25:00,50.3,39.3,28.56,NNW,333,6.0,8.0,66,0.00,CLR,,0.00,WeatherDisplay:10.37,2013-04-12 01:25:00,
2013-04-11 21:30:00,50.4,39.8,28.56,NNW,340,0.0,6.0,67,0.00,CLR,,0.00,WeatherDisplay:10.37,2013-04-12 01:30:00,
2013-04-11 21:35:00,50.2,40.0,28.56,NNW,340,0.0,3.0,68,0.00,CLR,,0.00,WeatherDisplay:10.37,2013-04-12 01:35:00,
2013-04-11 21:40:00,49.9,39.4,28.53,NNW,340,0.0,4.0,67,0.00,CLR,,0.00,WeatherDisplay:10.37,2013-04-12 01:40:00,
2013-04-11 21:45:00,49.3,36.8,28.53,NNW,340,0.0,3.0,62,0.20,RA,,0.20,WeatherDisplay:10.37,2013-04-12 01:45:00,
2013-04-11 21:50:00,48.7,35.5,28.53,NNW,340,0.0,3.0,60,0.00,RA,,0.20,WeatherDisplay:10.37,2013-04-12 01:50:00,
2013-04-11 21:55:00,48.6,35.4,28.56,NNW,340,0.0,3.0,60,0.00,,,0.20,WeatherDisplay:10.37,2013-04-12 01:55:00,
2013-04-11 22:00:00,48.6,35.7,28.56,NNW,340,0.0,0.0,61,0.00,CLR,,0.20,WeatherDisplay:10.37,2013-04-12 02:00:00,
2013-04-11 22:05:00,48.4,35.5,28.56,NNW,340,0.0,0.0,61,0.04,RA,,0.24,WeatherDisplay:10.37,2013-04-12 02:05:00,
2013-04-11 22:10:00,48.2,35.4,28.56,NNW,340,0.0,0.0,61,0.00,RA,,0.24,WeatherDisplay:10.37,2013-04-12 02:10:00,
2013-04-11 22:15:00,47.9,33.4,28.56,NNW,340,0.0,0.0,57,0.00,,,0.24,WeatherDisplay:10.37,2013-04-12 02:15:00,
2013-04-11 22:20:00,47.5,31.2,28.56,NNW,340,0.0,0.0,53,0.00,CLR,,0.24,WeatherDisplay:10.37,2013-04-12 02:20:00,
2013-04-11 22:30:00,47.3,32.8,28.56,NNW,340,0.0,0.0,57,0.00,CLR,,0.24,WeatherDisplay:10.37,2013-04-12 02:30:00,
2013-04-11 22:35:00,46.9,32.0,28.56,NNW,340,0.0,0.0,56,0.00,CLR,,0.24,WeatherDisplay:10.37,2013-04-12 02:35:00,
2013-04-11 22:45:00,47.1,34.8,28.56,NNW,341,0.0,0.0,62,0.00,CLR,,0.24,WeatherDisplay:10.37,2013-04-12 02:45:00,
2013-04-11 22:50:00,46.9,34.6,28.56,North,11,0.0,0.0,62,0.00,CLR,,0.24,WeatherDisplay:10.37,2013-04-12 02:50:00,
2013-04-11 22:55:00,46.8,34.0,28.56,NE,53,0.0,3.0,61,0.00,CLR,,0.24,WeatherDisplay:10.37,2013-04-12 02:55:00,
2013-04-11 23:05:00,46.6,34.7,28.56,ENE,63,0.0,4.0,63,0.00,CLR,,0.24,WeatherDisplay:10.37,2013-04-12 03:05:00,
2013-04-11 23:10:00,46.8,34.8,28.56,ENE,63,0.0,4.0,63,0.00,CLR,,0.24,WeatherDisplay:10.37,2013-04-12 03:10:00,
2013-04-11 23:15:00,46.6,34.2,28.56,ENE,63,0.0,4.0,62,0.00,CLR,,0.24,WeatherDisplay:10.37,2013-04-12 03:15:00,
2013-04-11 23:25:00,46.6,33.4,28.56,ENE,62,0.0,3.0,60,0.00,CLR,,0.24,WeatherDisplay:10.37,2013-04-12 03:25:00,
2013-04-11 23:30:00,46.6,33.4,28.56,ENE,62,0.0,2.0,60,0.00,CLR,,0.24,WeatherDisplay:10.37,2013-04-12 03:30:00,
2013-04-11 23:35:00,46.6,33.4,28.56,ENE,62,0.0,0.0,60,0.00,CLR,,0.24,WeatherDisplay:10.37,2013-04-12 03:35:00,
2013-04-11 23:40:00,46.6,33.4,28.56,ENE,62,0.0,0.0,60,0.00,CLR,,0.24,WeatherDisplay:10.37,2013-04-12 03:40:00,
2013-04-11 23:45:00,46.6,33.4,28.56,ENE,62,0.0,0.0,60,0.00,CLR,,0.24,WeatherDisplay:10.37,2013-04-12 03:45:00,
2013-04-11 23:50:00,46.6,33.4,28.56,ENE,62,0.0,0.0,60,0.00,CLR,,0.24,WeatherDisplay:10.37,2013-04-12 03:50:00,
2013-04-11 23:55:00,46.6,33.4,28.53,ENE,62,0.0,0.0,60,0.00,CLR,,0.24,WeatherDisplay:10.37,2013-04-12 03:55:00,